Time;durP1;ratioP1;P1;durP2;ratioP2;P2;SDS_P1;SDS_P2;PMS_P1;PMS_P2;Temp;Humidity;BMP_temperature;BMP_pressure;BME280_temperature;BME280_humidity;BME280_pressure;Samples;Min_cycle;Max_cycle;Signal;HPM_P1;HPM_P2
2022/11/25 00:02:48;;;;;;;13.73;3.83;;;;;;;3.75;100.00;101052.38;6221330;28;20046;-77
2022/11/25 00:05:49;;;;;;;8.73;3.85;;;;;;;3.78;100.00;101043.66;6221197;28;20053;-77
2022/11/25 00:08:54;;;;;;;8.20;3.50;;;;;;;3.77;100.00;101050.59;6221687;28;20049;-76
2022/11/25 00:11:55;;;;;;;5.10;3.22;;;;;;;3.78;100.00;101047.13;6221139;28;20050;-77
2022/11/25 00:14:58;;;;;;;8.20;3.85;;;;;;;3.80;100.00;101042.72;6221194;28;20054;-77
2022/11/25 00:17:59;;;;;;;7.78;2.65;;;;;;;3.80;100.00;101039.28;6221481;28;20046;-77
2022/11/25 00:21:05;;;;;;;6.32;3.42;;;;;;;3.72;100.00;101026.44;6221344;28;20046;-77
2022/11/25 00:24:07;;;;;;;7.07;3.42;;;;;;;3.73;100.00;101019.50;6220918;28;20081;-77
2022/11/25 00:27:09;;;;;;;4.90;3.15;;;;;;;3.71;100.00;101023.88;6221757;28;20050;-77
2022/11/25 00:30:12;;;;;;;10.05;3.20;;;;;;;3.68;100.00;101031.72;6220936;28;20413;-77
2022/11/25 00:33:14;;;;;;;7.68;3.47;;;;;;;3.64;100.00;101017.97;6221296;28;20417;-77
2022/11/25 00:36:19;;;;;;;6.00;3.58;;;;;;;3.67;100.00;101023.06;6220752;28;20054;-77
2022/11/25 00:39:23;;;;;;;6.72;3.75;;;;;;;3.66;100.00;101020.50;6222057;28;20069;-77
2022/11/25 00:45:44;;;;;;;6.22;2.53;;;;;;;3.65;100.00;101019.66;6225249;28;20046;-77
2022/11/25 00:48:46;;;;;;;4.80;2.80;;;;;;;3.67;100.00;101019.63;6225519;28;20046;-77
2022/11/25 00:51:47;;;;;;;9.27;3.17;;;;;;;3.64;100.00;101017.09;6224960;28;20053;-77
2022/11/25 00:54:50;;;;;;;5.15;2.63;;;;;;;3.65;100.00;101024.00;6224815;28;20509;-77
2022/11/25 00:57:51;;;;;;;7.82;2.47;;;;;;;3.64;100.00;101030.94;6225241;28;20049;-75
2022/11/25 01:00:54;;;;;;;5.47;2.90;;;;;;;3.66;100.00;101034.34;6224854;28;20050;-76
2022/11/25 01:03:55;;;;;;;7.10;2.25;;;;;;;3.64;100.00;101028.34;6224395;28;20053;-77
2022/11/25 01:06:58;;;;;;;4.13;2.58;;;;;;;3.69;100.00;101023.06;6225108;28;20053;-76
2022/11/25 01:10:00;;;;;;;7.38;2.92;;;;;;;3.73;100.00;101020.38;6224313;28;20474;-77
2022/11/25 01:13:01;;;;;;;8.02;2.80;;;;;;;3.72;100.00;101029.03;6224922;28;20053;-76
2022/11/25 01:16:06;;;;;;;6.28;3.13;;;;;;;3.75;100.00;101022.91;6224201;28;20493;-76
2022/11/25 01:19:07;;;;;;;9.48;2.53;;;;;;;3.75;100.00;101021.19;6224896;28;20058;-76
2022/11/25 01:22:09;;;;;;;9.05;2.35;;;;;;;3.79;100.00;101020.22;6224233;28;20053;-77
2022/11/25 01:25:11;;;;;;;4.68;1.98;;;;;;;3.81;100.00;101015.88;6224219;28;20112;-77
2022/11/25 01:28:13;;;;;;;5.18;2.28;;;;;;;3.80;100.00;101019.34;6224495;28;20057;-77
2022/11/25 01:31:18;;;;;;;10.27;2.95;;;;;;;3.84;100.00;101022.72;6224076;28;20092;-77
2022/11/25 01:34:21;;;;;;;5.53;2.22;;;;;;;3.85;100.00;101015.78;6224277;28;20479;-76
2022/11/25 01:37:23;;;;;;;2.40;1.65;;;;;;;3.91;100.00;101011.31;6224139;28;20493;-77
2022/11/25 01:40:24;;;;;;;5.43;1.88;;;;;;;3.95;100.00;101012.09;6224093;28;20057;-77
2022/11/25 01:43:26;;;;;;;2.78;1.90;;;;;;;3.97;100.00;101018.13;6223833;28;20502;-77
2022/11/25 01:46:36;;;;;;;5.93;2.67;;;;;;;3.94;100.00;101007.78;6223808;28;20060;-76
2022/11/25 01:49:43;;;;;;;3.83;2.00;;;;;;;3.96;100.00;101008.63;6223687;28;20049;-77
2022/11/25 01:52:47;;;;;;;5.00;1.60;;;;;;;3.94;100.00;101000.84;6223172;28;20049;-76
2022/11/25 01:55:56;;;;;;;8.60;2.15;;;;;;;3.93;100.00;100991.34;6223325;28;20137;-77
2022/11/25 01:58:58;;;;;;;4.35;1.55;;;;;;;3.92;100.00;100989.63;6223926;28;20323;-77
2022/11/25 02:02:01;;;;;;;3.72;1.90;;;;;;;3.92;100.00;100994.81;6241413;23;21730;-68
2022/11/25 02:05:09;;;;;;;4.00;1.63;;;;;;;4.00;100.00;100995.53;6198665;28;20153;-68
2022/11/25 02:08:12;;;;;;;6.72;2.20;;;;;;;4.04;100.00;101002.38;6183123;28;20137;-67
2022/11/25 02:11:15;;;;;;;13.40;2.50;;;;;;;4.04;100.00;100993.69;6180908;28;20537;-68
2022/11/25 02:14:19;;;;;;;3.80;1.85;;;;;;;4.03;100.00;100995.44;6198773;28;20054;-68
2022/11/25 02:17:22;;;;;;;4.10;1.90;;;;;;;4.07;100.00;100996.22;6199123;28;20135;-68
2022/11/25 02:20:25;;;;;;;9.07;2.60;;;;;;;4.08;100.00;100993.56;6198761;28;20519;-68
2022/11/25 02:23:36;;;;;;;6.82;2.13;;;;;;;4.12;100.00;100993.53;6198652;28;20064;-68
2022/11/25 02:26:39;;;;;;;2.75;1.58;;;;;;;4.10;100.00;100990.13;6198342;28;20046;-68
2022/11/25 02:29:43;;;;;;;5.25;1.70;;;;;;;4.16;100.00;100996.00;6198420;28;20137;-68
2022/11/25 02:32:45;;;;;;;12.20;2.42;;;;;;;4.15;100.00;100996.06;6198625;28;20077;-68
2022/11/25 02:35:48;;;;;;;3.05;1.25;;;;;;;4.18;100.00;100994.25;6198263;28;20129;-68
2022/11/25 02:38:52;;;;;;;2.55;1.58;;;;;;;4.20;100.00;100995.06;6198652;28;20046;-68
2022/11/25 02:41:58;;;;;;;6.32;2.05;;;;;;;4.21;100.00;100993.31;6197678;28;20054;-68
2022/11/25 02:45:00;;;;;;;2.33;1.63;;;;;;;4.19;100.00;100985.56;6198123;28;20498;-68
2022/11/25 02:48:01;;;;;;;2.72;1.55;;;;;;;4.19;100.00;100993.34;6198348;28;20050;-68
2022/11/25 02:51:03;;;;;;;4.28;1.73;;;;;;;4.19;100.00;100990.75;6198021;28;20050;-68
2022/11/25 02:54:06;;;;;;;1.63;1.33;;;;;;;4.18;100.00;100990.78;6197843;28;20051;-68
2022/11/25 02:57:08;;;;;;;3.00;1.42;;;;;;;4.19;100.00;100989.91;6198285;28;20054;-68
2022/11/25 03:00:11;;;;;;;2.97;1.33;;;;;;;4.19;100.00;100988.16;6197703;28;20173;-68
2022/11/25 03:03:13;;;;;;;1.80;1.20;;;;;;;4.21;100.00;100991.56;6197923;28;20057;-68
2022/11/25 03:06:15;;;;;;;3.28;1.60;;;;;;;4.22;100.00;100982.84;6197676;28;20058;-68
2022/11/25 03:09:16;;;;;;;11.45;2.08;;;;;;;4.21;100.00;100990.72;6197841;28;20054;-68
2022/11/25 03:12:19;;;;;;;7.50;1.27;;;;;;;4.18;100.00;100981.25;6197627;28;20050;-68
2022/11/25 03:15:20;;;;;;;2.60;1.17;;;;;;;4.18;100.00;100978.66;6197615;28;20054;-68
2022/11/25 03:18:22;;;;;;;8.65;1.85;;;;;;;4.18;100.00;100976.03;6209586;28;20050;-68
2022/11/25 03:21:23;;;;;;;3.25;1.20;;;;;;;4.19;100.00;100974.28;6208148;28;20053;-68
2022/11/25 03:24:25;;;;;;;2.38;1.30;;;;;;;4.23;100.00;100973.34;6211336;28;20057;-68
2022/11/25 03:27:28;;;;;;;4.53;1.40;;;;;;;4.25;100.00;100974.13;6212187;28;20048;-68
2022/11/25 03:30:30;;;;;;;3.40;1.45;;;;;;;4.27;100.00;100980.16;6221706;28;20057;-68
2022/11/25 03:33:31;;;;;;;8.77;2.10;;;;;;;4.28;100.00;100981.88;6218561;28;20057;-68
2022/11/25 03:36:33;;;;;;;2.00;1.20;;;;;;;4.24;100.00;100972.44;6212238;28;20525;-68
2022/11/25 03:39:34;;;;;;;7.80;1.38;;;;;;;4.25;100.00;100977.59;6222092;28;20057;-68
2022/11/25 03:42:38;;;;;;;1.70;1.20;;;;;;;4.25;100.00;100980.19;6221542;28;20053;-68
2022/11/25 03:45:39;;;;;;;8.30;1.88;;;;;;;4.20;100.00;100981.19;6219371;28;20050;-68
2022/11/25 03:48:40;;;;;;;2.67;1.20;;;;;;;4.19;100.00;100977.75;6221877;28;20061;-68
2022/11/25 03:51:42;;;;;;;6.30;1.48;;;;;;;4.19;100.00;100982.09;6221468;28;20058;-68
2022/11/25 03:54:44;;;;;;;6.10;1.00;;;;;;;4.19;100.00;100974.28;6221579;28;20081;-68
2022/11/25 03:57:47;;;;;;;3.30;1.48;;;;;;;4.15;100.00;100965.69;6215774;28;20046;-68
2022/11/25 04:00:48;;;;;;;5.13;1.85;;;;;;;4.14;100.00;100963.16;6214194;28;20097;-68
2022/11/25 04:03:49;;;;;;;2.72;1.70;;;;;;;4.20;100.00;100963.00;6221183;28;20054;-68
2022/11/25 04:06:51;;;;;;;5.28;1.17;;;;;;;4.24;100.00;100957.69;6221508;28;20409;-68
2022/11/25 04:09:52;;;;;;;2.80;1.23;;;;;;;4.26;100.00;100960.22;6221354;28;20057;-68
2022/11/25 04:12:55;;;;;;;5.55;1.40;;;;;;;4.35;100.00;100954.81;6221634;28;20409;-68
2022/11/25 04:15:57;;;;;;;9.13;1.45;;;;;;;4.38;100.00;100959.94;6224440;28;20057;-68
2022/11/25 04:18:58;;;;;;;2.83;1.00;;;;;;;4.37;100.00;100957.41;6226116;28;20065;-68
2022/11/25 04:22:01;;;;;;;8.32;1.38;;;;;;;4.42;100.00;100956.38;6225906;28;20050;-68
2022/11/25 04:25:03;;;;;;;2.72;1.50;;;;;;;4.47;100.00;100958.88;6225380;28;20442;-68
2022/11/25 04:28:06;;;;;;;7.18;1.67;;;;;;;4.54;100.00;100965.63;6226306;28;20053;-68
2022/11/25 04:31:08;;;;;;;6.22;1.85;;;;;;;4.58;100.00;100960.28;6225587;28;20054;-68
2022/11/25 04:34:10;;;;;;;6.45;1.85;;;;;;;4.62;100.00;100961.09;6225654;28;20041;-68
2022/11/25 04:37:11;;;;;;;8.07;1.45;;;;;;;4.64;100.00;100964.50;6225712;28;20406;-68
2022/11/25 04:40:13;;;;;;;2.30;0.95;;;;;;;4.66;100.00;100954.06;6225337;28;20061;-68
2022/11/25 04:43:16;;;;;;;4.53;1.88;;;;;;;4.68;100.00;100947.94;6225667;28;20060;-68
2022/11/25 04:46:20;;;;;;;7.07;2.75;;;;;;;4.69;100.00;100949.63;6225219;28;20045;-68
2022/11/25 04:49:22;;;;;;;2.83;1.30;;;;;;;4.70;100.00;100955.69;6225696;28;20049;-68
2022/11/25 04:52:23;;;;;;;7.20;1.08;;;;;;;4.69;100.00;100957.44;6224928;28;20049;-68
2022/11/25 04:55:25;;;;;;;6.03;1.23;;;;;;;4.72;100.00;100953.88;6225128;28;20041;-68
2022/11/25 05:01:47;;;;;;;1.20;0.82;;;;;;;4.72;100.00;100956.50;6224893;28;20050;-71
2022/11/25 05:04:50;;;;;;;7.88;1.27;;;;;;;4.72;100.00;100949.53;6224673;28;20056;-68
2022/11/25 05:07:51;;;;;;;6.32;1.75;;;;;;;4.75;100.00;100946.00;6224911;28;20077;-68
2022/11/25 05:10:53;;;;;;;4.65;1.17;;;;;;;4.79;100.00;100943.28;6224675;28;20050;-68
2022/11/25 05:13:55;;;;;;;8.38;1.52;;;;;;;4.83;100.00;100950.13;6224701;28;20509;-68
2022/11/25 05:16:57;;;;;;;5.70;1.75;;;;;;;4.86;100.00;100951.81;6225143;28;20085;-68
2022/11/25 05:19:58;;;;;;;7.95;1.85;;;;;;;4.87;100.00;100950.06;6224247;28;20050;-68
2022/11/25 05:23:00;;;;;;;3.00;1.50;;;;;;;4.85;100.00;100955.28;6224734;28;20046;-71
2022/11/25 05:26:02;;;;;;;10.10;1.92;;;;;;;4.91;100.00;100967.31;6224185;28;20050;-68
2022/11/25 05:29:04;;;;;;;12.68;1.67;;;;;;;4.97;100.00;100977.56;6224746;28;20050;-68
2022/11/25 05:32:06;;;;;;;5.90;2.40;;;;;;;5.04;100.00;100979.06;6223864;28;20057;-68
2022/11/25 05:35:08;;;;;;;6.53;0.93;;;;;;;5.06;100.00;100979.91;6224206;28;20540;-68
2022/11/25 05:38:10;;;;;;;8.27;1.77;;;;;;;5.11;100.00;100975.44;6224260;28;20060;-68
2022/11/25 05:41:12;;;;;;;5.43;1.40;;;;;;;5.13;100.00;100984.03;6224203;28;20056;-68
2022/11/25 05:44:14;;;;;;;3.13;1.30;;;;;;;5.16;100.00;100983.13;6223916;28;20612;-71
2022/11/25 05:47:16;;;;;;;4.22;1.45;;;;;;;5.12;100.00;100982.34;6224271;28;20050;-68
2022/11/25 05:50:17;;;;;;;4.38;1.42;;;;;;;5.08;100.00;100983.31;6223933;28;20045;-68
2022/11/25 05:53:19;;;;;;;2.53;1.20;;;;;;;5.04;100.00;100979.97;6224051;28;20073;-71
2022/11/25 05:56:20;;;;;;;2.90;1.50;;;;;;;5.01;100.00;100973.97;6223831;28;20050;-68
2022/11/25 05:59:23;;;;;;;3.28;1.38;;;;;;;4.97;100.00;100974.94;6223832;28;20061;-68
2022/11/25 06:02:24;;;;;;;1.73;1.20;;;;;;;4.93;100.00;100971.56;6223366;28;20414;-68
2022/11/25 06:05:26;;;;;;;5.57;1.13;;;;;;;4.89;100.00;100969.06;6223293;28;20058;-68
2022/11/25 06:08:28;;;;;;;9.70;1.90;;;;;;;4.87;100.00;100966.53;6223679;28;20394;-68
2022/11/25 06:11:29;;;;;;;4.57;1.35;;;;;;;4.86;100.00;100962.22;6223246;28;20771;-68
2022/11/25 06:14:32;;;;;;;6.32;1.63;;;;;;;4.84;100.00;100975.25;6223509;28;20058;-68
2022/11/25 06:17:33;;;;;;;10.40;1.73;;;;;;;4.83;100.00;100981.38;6223207;28;20057;-68
2022/11/25 06:20:35;;;;;;;4.55;1.88;;;;;;;4.84;100.00;100977.84;6223383;28;20057;-68
2022/11/25 06:23:37;;;;;;;3.85;1.48;;;;;;;4.86;100.00;100985.66;6223379;28;20058;-68
2022/11/25 06:26:38;;;;;;;2.65;1.27;;;;;;;4.82;100.00;100984.88;6222793;28;20409;-68
2022/11/25 06:29:41;;;;;;;1.65;1.20;;;;;;;4.82;100.00;100986.63;6223097;28;20054;-67
2022/11/25 06:32:43;;;;;;;1.98;1.15;;;;;;;4.82;100.00;100987.47;6222932;28;20076;-68
2022/11/25 06:35:44;;;;;;;6.00;1.40;;;;;;;4.82;100.00;100991.84;6222561;28;20046;-68
2022/11/25 06:38:47;;;;;;;10.10;2.08;;;;;;;4.84;100.00;100990.03;6222570;28;20053;-69
2022/11/25 06:41:48;;;;;;;7.38;1.42;;;;;;;4.86;100.00;100998.66;6222797;28;20046;-69
2022/11/25 06:44:51;;;;;;;4.57;1.55;;;;;;;4.88;100.00;100998.63;6222561;28;20049;-69
2022/11/25 06:47:53;;;;;;;1.42;1.13;;;;;;;4.87;100.00;101005.59;6223153;28;20176;-69
2022/11/25 06:50:56;;;;;;;6.70;2.85;;;;;;;4.87;100.00;100997.78;6222284;28;20046;-69
2022/11/25 06:53:57;;;;;;;22.35;7.28;;;;;;;4.88;100.00;101004.69;6222433;28;20085;-69
2022/11/25 06:56:59;;;;;;;19.90;4.43;;;;;;;4.88;100.00;101002.06;6222522;28;20058;-69
2022/11/25 07:00:02;;;;;;;7.53;1.83;;;;;;;4.88;100.00;101001.22;6222150;28;20045;-69
2022/11/25 07:03:04;;;;;;;4.65;1.92;;;;;;;4.87;100.00;101000.38;6222584;28;20056;-69
2022/11/25 07:06:05;;;;;;;5.57;1.88;;;;;;;4.88;100.00;101004.69;6221941;28;20456;-68
2022/11/25 07:09:07;;;;;;;7.03;1.60;;;;;;;4.89;100.00;100998.56;6222408;28;20057;-68
2022/11/25 07:12:11;;;;;;;8.68;1.70;;;;;;;4.95;100.00;100995.81;6221858;28;20050;-68
2022/11/25 07:15:13;;;;;;;1.90;1.08;;;;;;;5.01;100.00;101008.69;6221825;28;20441;-69
2022/11/25 07:18:15;;;;;;;6.53;1.58;;;;;;;5.04;100.00;101006.00;6222314;28;20049;-68
2022/11/25 07:21:19;;;;;;;7.43;1.58;;;;;;;5.07;100.00;101013.72;6221956;28;20050;-69
2022/11/25 07:24:20;;;;;;;12.70;1.90;;;;;;;5.11;100.00;101016.25;6221956;28;20046;-68
2022/11/25 07:27:21;;;;;;;9.05;1.83;;;;;;;5.15;100.00;101023.94;6222356;28;20053;-69
2022/11/25 07:30:24;;;;;;;7.63;1.88;;;;;;;5.15;100.00;101021.34;6221824;28;20140;-69
2022/11/25 07:33:25;;;;;;;4.97;1.85;;;;;;;5.19;100.00;101022.97;6222201;28;20065;-69
2022/11/25 07:36:27;;;;;;;5.63;1.55;;;;;;;5.20;100.00;101029.03;6221713;28;20056;-69
2022/11/25 07:39:29;;;;;;;10.10;2.22;;;;;;;5.22;100.00;101040.25;6221830;28;20093;-69
2022/11/25 07:42:30;;;;;;;2.85;1.73;;;;;;;5.23;100.00;101040.25;6221426;28;20053;-69
2022/11/25 07:45:33;;;;;;;6.30;1.77;;;;;;;5.24;100.00;101041.94;6221701;28;20145;-69
2022/11/25 07:48:34;;;;;;;6.43;2.08;;;;;;;5.26;100.00;101041.88;6221992;28;20053;-69
2022/11/25 07:51:38;;;;;;;7.22;1.92;;;;;;;5.30;100.00;101049.59;6220248;28;20054;-68
2022/11/25 07:54:39;;;;;;;2.42;1.33;;;;;;;5.32;100.00;101047.81;6218702;28;20049;-69
2022/11/25 07:57:40;;;;;;;5.32;2.50;;;;;;;5.35;100.00;101058.13;6195792;28;20047;-68
2022/11/25 08:00:43;;;;;;;6.25;1.63;;;;;;;5.40;100.00;101054.53;6202192;28;20054;-69
2022/11/25 08:03:47;;;;;;;10.82;1.98;;;;;;;5.42;100.00;101071.88;6202054;28;20050;-68
2022/11/25 08:06:51;;;;;;;7.13;1.63;;;;;;;5.43;100.00;101067.50;6202352;28;20046;-68
2022/11/25 08:09:52;;;;;;;4.22;2.05;;;;;;;5.46;100.00;101077.84;6201834;28;20510;-69
2022/11/25 08:12:53;;;;;;;7.32;1.63;;;;;;;5.50;100.00;101082.09;6201926;28;20061;-69
2022/11/25 08:15:58;;;;;;;6.65;1.90;;;;;;;5.55;100.00;101075.00;6201738;28;20423;-68
2022/11/25 08:19:02;;;;;;;5.05;3.08;;;;;;;5.54;100.00;101087.19;6201900;28;20046;-68
2022/11/25 08:22:05;;;;;;;6.10;2.05;;;;;;;5.55;100.00;101078.47;6201681;28;20050;-68
2022/11/25 08:25:07;;;;;;;6.72;2.13;;;;;;;5.60;100.00;101086.16;6201357;28;20633;-68
2022/11/25 08:28:09;;;;;;;1.50;1.40;;;;;;;5.65;100.00;101092.09;6201855;28;20053;-69
2022/11/25 08:31:15;;;;;;;6.88;2.00;;;;;;;5.70;100.00;101089.34;6201291;28;20093;-68
2022/11/25 08:34:19;;;;;;;5.28;2.03;;;;;;;5.74;100.00;101098.81;6201338;28;20061;-69
2022/11/25 08:37:20;;;;;;;9.98;2.28;;;;;;;5.78;100.00;101100.44;6201586;28;20061;-69
2022/11/25 08:40:21;;;;;;;6.85;1.67;;;;;;;5.81;100.00;101100.34;6201355;28;20046;-69
2022/11/25 08:43:23;;;;;;;2.30;1.40;;;;;;;5.82;100.00;101110.75;6201308;28;20061;-69
2022/11/25 08:46:28;;;;;;;4.28;1.75;;;;;;;5.84;100.00;101114.16;6201144;28;20057;-68
2022/11/25 08:49:30;;;;;;;5.40;2.20;;;;;;;5.89;100.00;101115.78;6201273;28;20082;-69
2022/11/25 08:52:31;;;;;;;9.77;2.08;;;;;;;5.92;100.00;101113.13;6200638;28;20047;-69
2022/11/25 08:55:35;;;;;;;3.45;1.90;;;;;;;5.95;100.00;101113.03;6200728;28;20502;-68
2022/11/25 08:58:37;;;;;;;5.40;2.33;;;;;;;5.98;100.00;101113.78;6201195;28;20173;-68
2022/11/25 09:01:40;;;;;;;10.35;3.17;;;;;;;6.02;100.00;101118.03;6200486;28;20058;-69
2022/11/25 09:04:42;;;;;;;5.28;2.20;;;;;;;6.03;100.00;101124.09;6200373;28;20057;-68
2022/11/25 09:07:43;;;;;;;3.13;1.90;;;;;;;6.11;100.00;101122.13;6201042;28;20046;-68
2022/11/25 09:10:45;;;;;;;12.05;2.20;;;;;;;6.13;100.00;101122.06;6200459;28;20162;-68
2022/11/25 09:13:46;;;;;;;11.50;2.35;;;;;;;6.15;100.00;101123.75;6200249;28;20054;-69
2022/11/25 09:16:49;;;;;;;6.72;2.25;;;;;;;6.24;100.00;101126.09;6200509;28;20050;-68
2022/11/25 09:19:50;;;;;;;10.50;2.20;;;;;;;6.24;100.00;101131.31;6200233;28;20069;-71
2022/11/25 09:22:52;;;;;;;6.88;2.53;;;;;;;6.32;100.00;101134.56;6200453;28;20066;-69
2022/11/25 09:25:54;;;;;;;4.20;2.08;;;;;;;6.36;100.00;101137.94;6200087;28;20054;-69
2022/11/25 09:28:55;;;;;;;11.30;2.75;;;;;;;6.40;100.00;101142.13;6200379;28;20057;-67
2022/11/25 09:31:59;;;;;;;9.27;2.28;;;;;;;6.45;100.00;101142.00;6199725;28;20046;-69
2022/11/25 09:35:00;;;;;;;6.68;1.88;;;;;;;6.43;100.00;101136.00;6208135;28;20046;-68
2022/11/25 09:38:01;;;;;;;3.58;1.98;;;;;;;6.51;100.00;101140.09;6219350;28;20050;-68
2022/11/25 09:41:08;;;;;;;4.55;2.00;;;;;;;6.60;100.00;101144.16;6215939;28;20422;-70
2022/11/25 09:47:51;;;;;;;8.32;2.28;;;;;;;6.76;100.00;101161.06;6224169;28;20129;-70
2022/11/25 09:51:03;;;;;;;7.20;2.20;;;;;;;6.82;100.00;101155.66;6223635;28;20057;-69
2022/11/25 09:54:14;;;;;;;8.07;2.38;;;;;;;6.80;100.00;101159.22;6223845;28;20520;-70
2022/11/25 09:57:23;;;;;;;5.97;1.88;;;;;;;6.81;100.00;101160.91;6223422;28;20057;-70
2022/11/25 10:00:25;;;;;;;5.97;1.90;;;;;;;6.84;100.00;101153.00;6214973;28;20417;-69
2022/11/25 10:03:37;;;;;;;5.88;2.15;;;;;;;6.84;100.00;101156.47;6223638;28;20525;-70
2022/11/25 10:06:45;;;;;;;10.02;1.88;;;;;;;6.86;100.00;101165.13;6223284;28;20080;-71
2022/11/25 10:09:47;;;;;;;7.05;1.65;;;;;;;6.90;100.00;101168.47;6223411;28;20429;-70
2022/11/25 10:12:51;;;;;;;10.45;1.70;;;;;;;6.88;100.00;101174.66;6222671;28;20045;-71
2022/11/25 10:15:59;;;;;;;6.05;2.25;;;;;;;6.91;100.00;101171.97;6212747;28;20042;-71
2022/11/25 10:19:05;;;;;;;3.55;1.75;;;;;;;6.90;100.00;101178.06;6191132;28;20053;-71
2022/11/25 10:22:22;;;;;;;5.18;1.77;;;;;;;6.89;100.00;101185.06;6198531;28;20057;-70
2022/11/25 10:25:26;;;;;;;2.42;1.42;;;;;;;6.91;100.00;101188.50;6198587;28;20050;-70
2022/11/25 10:28:31;;;;;;;5.50;1.67;;;;;;;6.94;100.00;101184.91;6199092;28;20054;-70
2022/11/25 10:31:36;;;;;;;5.30;2.00;;;;;;;6.99;100.00;101183.84;6198550;28;20047;-70
2022/11/25 10:34:42;;;;;;;3.92;1.75;;;;;;;6.97;100.00;101177.00;6196058;28;20050;-71
2022/11/25 10:37:45;;;;;;;2.92;1.75;;;;;;;6.95;100.00;101191.84;6198665;28;20046;-70
2022/11/25 10:40:49;;;;;;;2.50;1.75;;;;;;;7.00;100.00;101193.44;6198205;28;20046;-70
2022/11/25 10:43:50;;;;;;;4.07;2.00;;;;;;;7.01;100.00;101186.44;6197981;28;20054;-71
2022/11/25 10:47:05;;;;;;;11.23;2.88;;;;;;;7.06;100.00;101182.78;6198340;28;20062;-69
2022/11/25 10:50:15;;;;;;;8.07;2.40;;;;;;;7.08;100.00;101185.31;6198277;28;20529;-70
2022/11/25 10:53:22;;;;;;;6.85;2.55;;;;;;;7.11;100.00;101188.72;6174100;28;20055;-71
2022/11/25 10:56:23;;;;;;;12.02;2.10;;;;;;;7.14;100.00;101192.16;6174094;28;20050;-71
2022/11/25 10:59:30;;;;;;;11.45;2.33;;;;;;;7.13;100.00;101178.22;6173907;28;20058;-70
2022/11/25 11:02:38;;;;;;;14.00;2.90;;;;;;;7.17;100.00;101185.03;6173730;28;20062;-70
2022/11/25 11:05:47;;;;;;;9.80;2.35;;;;;;;7.19;100.00;101187.63;6184603;28;20047;-71
2022/11/25 11:08:49;;;;;;;3.10;2.03;;;;;;;7.21;100.00;101191.88;6186603;28;20478;-70
2022/11/25 11:11:50;;;;;;;4.00;2.40;;;;;;;7.22;100.00;101193.59;6175855;28;20057;-70
2022/11/25 11:14:53;;;;;;;7.82;2.63;;;;;;;7.25;100.00;101203.94;6173514;28;20062;-71
2022/11/25 11:17:56;;;;;;;6.10;2.63;;;;;;;7.30;100.00;101195.94;6173741;28;20431;-70
2022/11/25 11:21:00;;;;;;;6.82;2.47;;;;;;;7.37;100.00;101194.88;6173529;28;20507;-70
2022/11/25 11:24:03;;;;;;;8.70;2.08;;;;;;;7.44;100.00;101204.19;6173056;28;20431;-71
2022/11/25 11:27:07;;;;;;;7.88;2.67;;;;;;;7.49;100.00;101201.44;6173935;28;20642;-71
2022/11/25 11:30:14;;;;;;;6.97;2.45;;;;;;;7.48;100.00;101205.81;6173258;28;20101;-71
2022/11/25 11:33:34;;;;;;;11.18;2.50;;;;;;;7.52;100.00;101206.56;6194921;28;20046;-71
2022/11/25 11:36:46;;;;;;;4.85;2.20;;;;;;;7.56;100.00;101205.56;6209259;28;20047;-70
2022/11/25 11:40:02;;;;;;;8.65;2.42;;;;;;;7.66;100.00;101212.19;6198447;28;20055;-71
2022/11/25 11:43:32;;;;;;;8.38;2.72;;;;;;;7.61;100.00;101209.72;6199093;28;20076;-71
2022/11/25 11:46:47;;;;;;;9.05;2.40;;;;;;;7.67;100.00;101213.03;6201468;28;20462;-71
2022/11/25 11:50:03;;;;;;;10.93;2.10;;;;;;;7.75;100.00;101211.03;6189190;28;20050;-71
2022/11/25 11:53:21;;;;;;;2.67;2.20;;;;;;;7.77;100.00;101212.69;6195584;28;20042;-70
2022/11/25 11:56:34;;;;;;;7.85;3.13;;;;;;;7.81;100.00;101211.69;6186613;28;20102;-70
2022/11/25 11:59:47;;;;;;;4.10;2.28;;;;;;;7.93;100.00;101217.38;6185966;28;20630;-71
2022/11/25 12:02:58;;;;;;;2.95;2.03;;;;;;;8.13;100.00;101212.31;6182195;28;20051;-71
2022/11/25 12:06:04;;;;;;;10.75;2.35;;;;;;;8.31;100.00;101227.38;6186940;28;20061;-71
2022/11/25 12:09:12;;;;;;;12.93;2.60;;;;;;;8.35;100.00;101218.47;6189613;28;20105;-71
2022/11/25 12:12:18;;;;;;;8.68;2.65;;;;;;;8.41;100.00;101221.81;6194059;28;20053;-71
2022/11/25 12:15:29;;;;;;;11.13;3.00;;;;;;;8.53;100.00;101226.59;6213189;28;20085;-71
2022/11/25 12:18:40;;;;;;;7.28;3.50;;;;;;;8.44;100.00;101232.16;6211279;28;20414;-70
2022/11/25 12:21:54;;;;;;;7.05;2.33;;;;;;;8.34;100.00;101235.09;6173043;28;20046;-71
2022/11/25 12:25:08;;;;;;;7.25;3.42;;;;;;;8.29;100.00;101237.03;6172648;28;20059;-71
2022/11/25 12:28:15;;;;;;;12.02;3.13;;;;;;;8.30;100.00;101243.09;6173211;28;20083;-71
2022/11/25 12:31:22;;;;;;;10.88;3.30;;;;;;;8.30;100.00;101249.19;6174744;28;20054;-71
2022/11/25 12:34:30;;;;;;;9.45;3.45;;;;;;;8.34;100.00;101242.09;6210665;28;20046;-71
2022/11/25 12:37:38;;;;;;;14.20;3.25;;;;;;;8.30;100.00;101251.81;6225134;28;20425;-71
2022/11/25 12:40:47;;;;;;;6.93;3.10;;;;;;;8.26;100.00;101250.22;6225821;28;20050;-70
2022/11/25 12:43:52;;;;;;;11.05;3.17;;;;;;;8.28;100.00;101253.66;6205310;28;20061;-71
2022/11/25 12:46:56;;;;;;;4.10;2.67;;;;;;;8.27;100.00;101256.34;6201450;28;20054;-70
2022/11/25 12:49:58;;;;;;;7.72;2.60;;;;;;;8.32;100.00;101254.41;6200744;28;20054;-71
2022/11/25 12:53:11;;;;;;;13.65;3.83;;;;;;;8.42;100.00;101257.56;6201212;28;20058;-71
2022/11/25 12:56:22;;;;;;;6.40;2.85;;;;;;;8.41;100.00;101264.56;6200914;28;20060;-71
2022/11/25 13:00:03;;;;;;;6.65;3.50;;;;;;;8.42;100.00;101266.28;6201102;28;20047;-71
2022/11/25 13:03:34;;;;;;;4.60;3.42;;;;;;;8.47;100.00;101264.34;6171400;28;20046;-71
2022/11/25 13:06:52;;;;;;;12.18;3.53;;;;;;;8.52;100.00;101267.66;6200363;28;20050;-72
2022/11/25 13:10:23;;;;;;;6.68;3.60;;;;;;;8.50;100.00;101272.09;6200618;28;20050;-72
2022/11/25 13:13:38;;;;;;;9.48;3.88;;;;;;;8.49;100.00;101272.13;6200784;28;20047;-71
2022/11/25 13:16:40;;;;;;;8.82;4.53;;;;;;;8.57;100.00;101283.19;6200184;28;20140;-71
2022/11/25 13:19:42;;;;;;;8.43;4.43;;;;;;;8.55;100.00;101282.41;6200541;28;20046;-72
2022/11/25 13:22:43;;;;;;;8.23;4.07;;;;;;;8.58;100.00;101280.53;6200217;28;20061;-71
2022/11/25 13:25:47;;;;;;;12.63;3.92;;;;;;;8.66;100.00;101288.09;6200454;28;20101;-71
2022/11/25 13:28:50;;;;;;;13.60;4.70;;;;;;;8.76;100.00;101293.84;6200117;28;20414;-74
2022/11/25 13:31:56;;;;;;;4.63;3.60;;;;;;;8.92;100.00;101291.53;6201706;28;20046;-68
2022/11/25 13:35:33;;;;;;;8.77;4.35;;;;;;;8.91;100.00;101292.44;6207430;28;20049;-69
2022/11/25 13:38:38;;;;;;;12.57;4.60;;;;;;;8.86;100.00;101303.09;6200437;28;20050;-69
2022/11/25 13:41:45;;;;;;;6.82;4.18;;;;;;;8.84;100.00;101297.06;6201579;28;20054;-69
2022/11/25 13:44:52;;;;;;;9.80;4.20;;;;;;;8.92;100.00;101304.63;6224174;28;20053;-71
2022/11/25 13:47:55;;;;;;;11.95;5.43;;;;;;;8.86;100.00;101311.81;6222779;28;20041;-71
2022/11/25 13:51:17;;;;;;;9.65;4.00;;;;;;;8.88;100.00;101307.38;6224063;28;20057;-71
2022/11/25 13:54:22;;;;;;;6.13;3.90;;;;;;;8.82;100.00;101320.72;6223598;28;20046;-71
2022/11/25 13:57:27;;;;;;;11.80;4.80;;;;;;;8.80;100.00;101313.81;6224156;28;20054;-71
2022/11/25 14:00:59;;;;;;;13.85;5.25;;;;;;;8.73;100.00;101326.28;6223427;28;20054;-71
2022/11/25 14:04:05;;;;;;;11.02;4.60;;;;;;;8.75;100.00;101331.47;6223152;28;20060;-71
2022/11/25 14:07:21;;;;;;;9.35;4.68;;;;;;;8.73;100.00;101322.81;6223764;28;20487;-71
2022/11/25 14:10:43;;;;;;;16.13;4.93;;;;;;;8.69;100.00;101321.22;6223270;28;20050;-72
2022/11/25 14:14:01;;;;;;;17.05;5.32;;;;;;;8.61;100.00;101331.97;6223675;28;20050;-73
2022/11/25 14:17:24;;;;;;;8.68;5.43;;;;;;;8.63;100.00;101332.78;6223453;28;20494;-73
2022/11/25 14:20:37;;;;;;;17.58;5.75;;;;;;;8.58;100.00;101335.56;6208250;28;20525;-72
2022/11/25 14:23:53;;;;;;;13.13;6.38;;;;;;;8.56;100.00;101332.13;6198999;28;20527;-72
2022/11/25 14:26:57;;;;;;;8.70;5.00;;;;;;;8.58;100.00;101340.78;6198983;28;20502;-72
2022/11/25 14:30:03;;;;;;;13.95;6.78;;;;;;;8.56;100.00;101347.84;6198453;28;20050;-72